Deer Ridge, Missouri
Current Conditions -  °F | °C
As of 12:55 AM on Friday 28 Nov 2014 (Local Time) from KIRK Reporting Station
Broken Clouds Broken Clouds  
Wind Chill:   Ceiling: 12000
Heat Index: 20°   Visibility: 10mi
Dew Point: 15°   Wind: 9mph
Humidity: 81%   Direction: 110°ESE
Pressure: 30.3"   Gusts: NA
Location:  40.1039°N, 91.9128°W
Report Text: KIRK 280655Z AUTO 11008KT 10SM BKN120 M07/M09 A3030 RMK AO2 SLP277 T10671094
Loading
Personal Weather Stations






























Interactive Weather Map New forecast layout! Learn more

10-Day Weather Forecast

Advertisements
Track Severe Weather on mobile